Time;durP1;ratioP1;P1;durP2;ratioP2;P2;SDS_P1;SDS_P2;PMS_P1;PMS_P2;Temp;Humidity;BMP_temperature;BMP_pressure;BME280_temperature;BME280_humidity;BME280_pressure;Samples;Min_cycle;Max_cycle;Signal;HPM_P1;HPM_P2
2023/07/30 00:01:13;;;;;;;23.60;3.53;;;;;;;-146.27;89.61;81934.25;5053123;28;20035;-68
2023/07/30 00:03:38;;;;;;;19.77;4.30;;;;;;;-146.27;89.11;81904.13;5053040;28;20021;-67
2023/07/30 00:06:03;;;;;;;24.98;4.50;;;;;;;-146.27;89.34;81898.09;5048925;28;20481;-67
2023/07/30 00:08:29;;;;;;;22.08;3.78;;;;;;;-146.27;89.39;81902.09;5053888;28;20036;-67
2023/07/30 00:10:56;;;;;;;24.50;4.93;;;;;;;-146.27;89.63;81906.13;5060214;28;20048;-69
2023/07/30 00:13:22;;;;;;;25.60;5.57;;;;;;;-146.27;89.83;81926.22;5059585;28;20021;-68
2023/07/30 00:15:48;;;;;;;22.33;3.58;;;;;;;-146.27;89.51;81890.06;5058305;28;20020;-68
2023/07/30 00:18:14;;;;;;;22.40;3.47;;;;;;;-146.27;89.75;81914.16;5052899;28;20049;-68
2023/07/30 00:20:39;;;;;;;26.55;4.07;;;;;;;-146.27;89.57;81886.03;5058584;28;20022;-68
2023/07/30 00:23:05;;;;;;;26.73;4.90;;;;;;;-146.27;89.86;81900.09;5056796;28;20029;-68
2023/07/30 00:25:30;;;;;;;24.33;4.15;;;;;;;-146.27;89.76;81869.97;5059880;28;20126;-67
2023/07/30 00:27:56;;;;;;;24.15;3.15;;;;;;;-146.27;89.45;81880.00;5055084;28;20024;-67
2023/07/30 00:30:21;;;;;;;17.25;3.45;;;;;;;-146.27;89.54;81880.00;5052789;28;20024;-68
2023/07/30 00:32:47;;;;;;;31.20;4.60;;;;;;;-146.27;89.82;81851.88;5058236;28;20021;-66
2023/07/30 00:35:12;;;;;;;26.50;4.30;;;;;;;-146.27;89.78;81890.06;5052112;28;20025;-68
2023/07/30 00:37:38;;;;;;;23.88;3.80;;;;;;;-146.27;90.04;81880.00;5055884;28;20120;-68
2023/07/30 00:40:04;;;;;;;30.98;4.10;;;;;;;-146.27;89.75;81892.06;5051406;28;20028;-68
2023/07/30 00:42:29;;;;;;;21.65;3.42;;;;;;;-146.27;90.00;81894.06;5055087;28;20117;-68
2023/07/30 00:44:55;;;;;;;25.60;4.78;;;;;;;-146.27;90.18;81914.16;5052168;28;20104;-68
2023/07/30 00:47:21;;;;;;;25.33;3.85;;;;;;;-146.27;90.50;81932.22;5053421;28;20033;-68
2023/07/30 00:49:48;;;;;;;23.58;3.58;;;;;;;-146.27;90.53;81882.00;5051776;28;20039;-68
2023/07/30 00:52:16;;;;;;;44.05;4.57;;;;;;;-146.27;90.42;81898.09;5053030;28;20058;-71
2023/07/30 00:54:42;;;;;;;17.48;3.50;;;;;;;-146.27;90.84;81936.25;5054101;28;20243;-68
2023/07/30 00:57:09;;;;;;;20.13;3.50;;;;;;;-146.27;90.28;81863.94;5057623;28;20123;-69
2023/07/30 00:59:38;;;;;;;20.65;3.60;;;;;;;-146.27;90.48;81906.13;5060897;28;20392;-68
2023/07/30 01:02:04;;;;;;;23.67;3.35;;;;;;;-146.27;90.21;81865.94;5058672;28;20036;-67
2023/07/30 01:04:30;;;;;;;34.85;3.60;;;;;;;-146.27;90.40;81865.94;5057044;28;20032;-67
2023/07/30 01:06:55;;;;;;;21.95;4.53;;;;;;;-146.27;90.40;81865.94;5059124;28;20036;-67
2023/07/30 01:09:21;;;;;;;23.02;4.07;;;;;;;-146.27;90.50;81849.88;5055303;28;20107;-67
2023/07/30 01:11:48;;;;;;;27.52;4.20;;;;;;;-146.27;90.83;81859.94;5058819;28;20047;-67
2023/07/30 01:14:14;;;;;;;24.15;3.65;;;;;;;-146.27;91.33;81859.94;5051956;28;20058;-67
2023/07/30 01:16:40;;;;;;;33.53;3.53;;;;;;;-146.27;91.34;81847.88;5056291;28;20439;-67
2023/07/30 01:19:06;;;;;;;30.30;6.43;;;;;;;-146.27;90.52;81807.69;5055047;28;20032;-68
2023/07/30 01:21:35;;;;;;;29.35;4.53;;;;;;;-146.27;90.83;81831.81;5056903;28;21882;-69
2023/07/30 01:24:00;;;;;;;26.38;3.85;;;;;;;-146.27;91.42;81817.75;5051109;28;20033;-68
2023/07/30 01:27:06;;;;;;;26.90;3.75;;;;;;;-146.27;91.79;81886.03;5055936;28;20036;-68
2023/07/30 01:29:55;;;;;;;29.45;3.67;;;;;;;-146.27;92.00;81871.97;5064618;28;20504;-68
2023/07/30 01:32:26;;;;;;;21.88;3.25;;;;;;;-146.27;91.25;81833.81;5062030;28;20055;-69
2023/07/30 01:34:57;;;;;;;27.58;4.05;;;;;;;-146.27;91.09;81799.66;5049518;28;20036;-69
2023/07/30 01:37:23;;;;;;;23.30;3.75;;;;;;;-146.27;91.75;81841.84;5066318;28;20028;-68
2023/07/30 01:39:49;;;;;;;31.25;4.47;;;;;;;-146.27;91.80;81833.81;5055247;28;20025;-68
2023/07/30 01:42:15;;;;;;;28.23;3.95;;;;;;;-146.27;91.49;81855.91;5049379;28;20021;-68
2023/07/30 01:44:40;;;;;;;31.65;4.10;;;;;;;-146.27;91.93;81873.97;5055592;28;20028;-69
2023/07/30 01:47:06;;;;;;;23.48;4.15;;;;;;;-146.27;91.61;81833.81;5054693;28;20040;-68
2023/07/30 01:49:31;;;;;;;23.45;4.03;;;;;;;-146.27;91.56;81831.81;5056905;28;20181;-69
2023/07/30 01:51:56;;;;;;;26.30;3.65;;;;;;;-146.27;91.09;81799.66;5055212;28;20033;-68
2023/07/30 01:54:22;;;;;;;32.90;3.90;;;;;;;-146.27;90.97;81827.78;5061183;28;20028;-68
2023/07/30 01:56:47;;;;;;;25.42;4.00;;;;;;;-146.27;90.97;81821.75;5062607;28;20495;-68
2023/07/30 01:59:13;;;;;;;22.70;3.67;;;;;;;-146.27;91.22;81857.91;5058464;28;20021;-69
2023/07/30 02:01:38;;;;;;;30.67;5.03;;;;;;;-146.27;91.85;81871.97;5065614;28;20115;-68
2023/07/30 02:04:04;;;;;;;24.48;3.15;;;;;;;-146.27;91.53;81912.16;5055213;28;20048;-68
2023/07/30 02:06:29;;;;;;;33.10;5.22;;;;;;;-146.27;91.43;81865.94;5062772;28;20047;-69
2023/07/30 02:08:54;;;;;;;30.92;3.40;;;;;;;-146.27;90.99;81853.91;5067021;28;20017;-68
2023/07/30 02:11:20;;;;;;;20.13;3.72;;;;;;;-146.27;90.93;81825.78;5066304;28;20047;-68
2023/07/30 02:13:45;;;;;;;22.30;3.72;;;;;;;-146.27;90.77;81821.75;5062665;28;20072;-68
2023/07/30 02:16:10;;;;;;;31.38;3.83;;;;;;;-146.27;90.40;81799.66;5057550;28;20120;-69
2023/07/30 02:18:36;;;;;;;27.30;3.05;;;;;;;-146.27;90.23;81827.78;5065683;28;20463;-69
2023/07/30 02:21:01;;;;;;;23.58;3.05;;;;;;;-146.27;91.03;81859.94;5055043;28;20408;-69
2023/07/30 02:23:26;;;;;;;31.23;5.43;;;;;;;-146.27;91.38;81873.97;5054316;28;20476;-68
2023/07/30 02:25:52;;;;;;;26.17;4.43;;;;;;;-146.27;91.58;81906.13;5064133;28;20087;-68
2023/07/30 02:28:17;;;;;;;29.58;3.85;;;;;;;-146.27;91.50;81853.91;5056868;28;20380;-67
2023/07/30 02:30:42;;;;;;;37.55;4.40;;;;;;;-146.27;90.93;81841.84;5059826;28;20032;-68
2023/07/30 02:33:08;;;;;;;29.88;4.18;;;;;;;-146.27;91.21;81890.06;5062342;28;20035;-67
2023/07/30 02:35:33;;;;;;;26.83;4.28;;;;;;;-146.27;90.83;81845.88;5057041;28;20115;-68
2023/07/30 02:37:59;;;;;;;24.88;3.20;;;;;;;-146.27;90.78;81863.94;5061109;28;20036;-68
2023/07/30 02:40:24;;;;;;;36.65;5.45;;;;;;;-146.27;91.39;81865.94;5055293;28;20036;-68
2023/07/30 02:42:49;;;;;;;23.02;3.72;;;;;;;-146.27;90.82;81833.81;5052007;28;20572;-67
2023/07/30 02:45:15;;;;;;;22.10;3.58;;;;;;;-146.27;90.24;81811.72;5061330;28;20029;-67
2023/07/30 02:47:40;;;;;;;26.80;3.70;;;;;;;-146.27;89.94;81821.75;5065704;28;20037;-67
2023/07/30 02:50:06;;;;;;;30.02;3.85;;;;;;;-146.27;90.34;81827.78;5063306;28;20025;-67
2023/07/30 02:52:32;;;;;;;15.05;3.00;;;;;;;-146.27;90.70;81876.00;5059393;28;20043;-69
2023/07/30 02:54:57;;;;;;;18.85;3.30;;;;;;;-146.27;90.25;81819.75;5062625;28;20086;-67
2023/07/30 02:57:22;;;;;;;21.35;3.15;;;;;;;-146.27;90.03;81817.75;5063873;28;20025;-68
2023/07/30 02:59:48;;;;;;;24.42;3.42;;;;;;;-146.27;89.78;81797.66;5055165;28;20031;-68
2023/07/30 03:02:13;;;;;;;24.50;3.83;;;;;;;-146.27;89.43;81801.69;5056686;28;20048;-67
2023/07/30 03:04:39;;;;;;;21.60;3.05;;;;;;;-146.27;89.17;81751.47;5065904;28;20048;-67
2023/07/30 03:07:04;;;;;;;24.55;3.72;;;;;;;-146.27;89.00;81783.59;5061108;28;20025;-68
2023/07/30 03:09:30;;;;;;;20.73;3.03;;;;;;;-146.27;88.89;81831.81;5053895;28;20036;-67
2023/07/30 03:11:55;;;;;;;16.17;2.60;;;;;;;-146.27;87.97;81807.69;5063788;28;20049;-67
2023/07/30 03:14:20;;;;;;;23.80;3.15;;;;;;;-146.27;87.82;81761.50;5055534;28;20038;-68
2023/07/30 03:16:49;;;;;;;16.77;2.65;;;;;;;-146.27;86.69;81783.59;5054577;28;20021;-67
2023/07/30 03:19:15;;;;;;;14.95;2.67;;;;;;;-146.27;86.52;81747.44;5053031;28;20028;-67
2023/07/30 03:21:49;;;;;;;16.13;2.58;;;;;;;-146.27;85.74;81817.75;5062252;28;20059;-68
2023/07/30 03:24:14;;;;;;;15.13;2.53;;;;;;;-146.27;84.94;81797.66;5063995;28;20399;-67
2023/07/30 03:26:39;;;;;;;15.07;2.70;;;;;;;-146.27;84.75;81757.50;5055707;28;20055;-68
2023/07/30 03:29:05;;;;;;;16.70;2.45;;;;;;;-146.27;84.61;81807.69;5053329;28;20025;-67
2023/07/30 03:31:30;;;;;;;12.60;2.55;;;;;;;-146.27;84.16;81809.72;5061693;28;20033;-67
2023/07/30 03:33:55;;;;;;;14.18;2.38;;;;;;;-146.27;83.86;81811.72;5056620;28;20029;-67
2023/07/30 03:36:21;;;;;;;15.73;2.42;;;;;;;-146.27;83.47;81791.63;5053758;28;20029;-67
2023/07/30 03:38:46;;;;;;;11.70;2.53;;;;;;;-146.27;83.40;81793.66;5058881;28;20074;-68
2023/07/30 03:41:12;;;;;;;22.17;3.30;;;;;;;-146.27;82.58;81865.94;5059597;28;20103;-68
2023/07/30 03:43:38;;;;;;;13.98;2.28;;;;;;;-146.27;81.13;81845.88;5063927;28;20056;-69
2023/07/30 03:46:03;;;;;;;13.55;1.85;;;;;;;-146.27;79.00;81829.78;5053502;28;20025;-68
2023/07/30 03:48:28;;;;;;;11.95;2.60;;;;;;;-146.27;77.39;81777.56;5058766;28;20071;-68
2023/07/30 03:50:55;;;;;;;7.57;2.05;;;;;;;-146.27;77.09;81795.66;5056222;28;20029;-67
2023/07/30 03:53:21;;;;;;;12.43;2.15;;;;;;;-146.27;76.94;81761.50;5064023;28;20107;-67
2023/07/30 03:55:47;;;;;;;7.75;1.90;;;;;;;-146.27;75.90;81801.69;5053549;28;20029;-68
2023/07/30 03:58:12;;;;;;;10.05;2.28;;;;;;;-146.27;74.79;81813.72;5052943;28;20559;-68
2023/07/30 04:00:37;;;;;;;11.35;1.65;;;;;;;-146.27;74.66;81823.78;5061106;28;20031;-68
2023/07/30 04:03:03;;;;;;;14.55;2.05;;;;;;;-146.27;72.55;81817.75;5059820;28;20036;-67
2023/07/30 04:05:29;;;;;;;9.80;2.40;;;;;;;-146.27;71.48;81857.91;5063413;28;20025;-68
2023/07/30 04:07:55;;;;;;;10.43;1.45;;;;;;;-146.27;71.47;81817.75;5057565;28;20066;-68
2023/07/30 04:10:20;;;;;;;9.20;2.00;;;;;;;-146.27;71.03;81765.53;5056534;28;20044;-67
2023/07/30 04:12:46;;;;;;;8.88;1.80;;;;;;;-146.27;70.45;81845.88;5059898;28;20480;-68
2023/07/30 04:15:11;;;;;;;10.20;2.25;;;;;;;-146.27;69.45;81819.75;5065371;28;20070;-68
2023/07/30 04:17:37;;;;;;;6.53;1.55;;;;;;;-146.27;69.56;81815.72;5052403;28;20021;-68
2023/07/30 04:20:04;;;;;;;8.85;1.38;;;;;;;-146.27;69.16;81789.63;5049492;28;20040;-67
2023/07/30 04:22:29;;;;;;;10.20;1.40;;;;;;;-146.27;68.47;81801.69;5064309;28;20020;-68
2023/07/30 04:24:55;;;;;;;8.63;1.25;;;;;;;-146.27;68.00;81871.97;5055554;28;20085;-68
2023/07/30 04:27:20;;;;;;;9.10;1.60;;;;;;;-146.27;68.42;81855.91;5056005;28;20445;-68
2023/07/30 04:29:45;;;;;;;12.52;1.40;;;;;;;-146.27;68.36;81809.72;5054566;28;20602;-68
2023/07/30 04:32:11;;;;;;;7.50;1.40;;;;;;;-146.27;68.08;81898.09;5052957;28;20038;-67
2023/07/30 04:34:36;;;;;;;5.82;1.42;;;;;;;-146.27;68.08;81845.88;5054850;28;20036;-68
2023/07/30 04:37:02;;;;;;;8.45;1.45;;;;;;;-146.27;67.35;81829.78;5053397;28;20392;-67
2023/07/30 04:39:30;;;;;;;9.35;1.42;;;;;;;-146.27;67.69;81835.81;5052731;28;20081;-68
2023/07/30 04:41:55;;;;;;;8.85;1.50;;;;;;;-146.27;67.89;81815.72;5051819;28;20149;-68
2023/07/30 04:44:20;;;;;;;8.20;1.67;;;;;;;-146.27;67.75;81817.75;5052670;28;20036;-67
2023/07/30 04:46:46;;;;;;;8.27;1.20;;;;;;;-146.27;68.15;81823.78;5061459;28;20024;-68
2023/07/30 04:49:11;;;;;;;7.30;1.55;;;;;;;-146.27;67.92;81837.81;5058085;28;20029;-68
2023/07/30 04:51:38;;;;;;;7.90;1.30;;;;;;;-146.27;68.35;81811.72;5049538;28;20025;-67
2023/07/30 04:54:03;;;;;;;9.52;1.88;;;;;;;-146.27;68.52;81845.88;5053562;28;20021;-70
2023/07/30 04:56:28;;;;;;;5.93;1.40;;;;;;;-146.27;68.28;81855.91;5049504;28;20031;-69
2023/07/30 04:58:54;;;;;;;7.88;1.58;;;;;;;-146.27;68.29;81837.81;5055936;28;20028;-69
2023/07/30 05:01:19;;;;;;;8.95;1.33;;;;;;;-146.27;68.22;81829.78;5058662;28;20039;-70
2023/07/30 05:03:45;;;;;;;9.50;1.50;;;;;;;-146.27;68.17;81837.81;5050777;28;20532;-70
2023/07/30 05:06:10;;;;;;;7.35;1.80;;;;;;;-146.27;68.30;81861.94;5056948;28;20108;-70
2023/07/30 05:08:35;;;;;;;9.43;1.92;;;;;;;-146.27;68.69;81809.72;5053486;28;20025;-70
2023/07/30 05:11:01;;;;;;;6.72;1.40;;;;;;;-146.27;68.88;81837.81;5056912;28;20044;-70
2023/07/30 05:13:26;;;;;;;6.28;1.92;;;;;;;-146.27;69.65;81829.78;5056493;28;20021;-70
2023/07/30 05:15:51;;;;;;;4.30;1.33;;;;;;;-146.27;69.65;81821.75;5060622;28;20447;-70
2023/07/30 05:18:17;;;;;;;8.93;1.23;;;;;;;-146.27;69.67;81811.72;5058344;28;20025;-70
2023/07/30 05:20:45;;;;;;;5.88;1.23;;;;;;;-146.27;70.15;81837.81;5062493;28;20451;-70
2023/07/30 05:23:10;;;;;;;9.02;1.98;;;;;;;-146.27;71.06;81813.72;5056977;28;20499;-70
2023/07/30 05:25:36;;;;;;;9.93;2.80;;;;;;;-146.27;70.77;81878.00;5056515;28;20025;-70
2023/07/30 05:28:01;;;;;;;6.13;1.80;;;;;;;-146.27;71.17;81837.81;5053634;28;20476;-69
2023/07/30 05:30:26;;;;;;;9.70;1.42;;;;;;;-146.27;72.24;81821.75;5060122;28;20056;-70
2023/07/30 05:32:52;;;;;;;10.18;1.52;;;;;;;-146.27;73.56;81833.81;5067567;28;20159;-70
2023/07/30 05:35:18;;;;;;;6.53;1.80;;;;;;;-146.27;74.82;81855.91;5055390;28;20029;-70
2023/07/30 05:37:44;;;;;;;6.55;1.48;;;;;;;-146.27;75.22;81809.72;5076131;28;20020;-70
2023/07/30 05:40:09;;;;;;;16.40;3.03;;;;;;;-146.27;75.59;81797.66;5058347;28;20542;-69
2023/07/30 05:42:35;;;;;;;12.10;1.70;;;;;;;-146.27;76.94;81833.81;5057038;28;20361;-69
2023/07/30 05:45:00;;;;;;;15.05;2.30;;;;;;;-146.27;78.09;81793.66;5064270;28;20053;-70
2023/07/30 05:47:25;;;;;;;10.27;2.92;;;;;;;-146.27;79.20;81817.75;5057619;28;20501;-69
2023/07/30 05:49:51;;;;;;;8.38;1.88;;;;;;;-146.27;80.41;81833.81;5061613;28;20115;-69
2023/07/30 05:52:16;;;;;;;16.17;2.78;;;;;;;-146.27;83.30;81867.97;5071858;28;20028;-70
2023/07/30 05:54:42;;;;;;;15.77;2.47;;;;;;;-146.27;83.23;81825.78;5057015;28;20136;-70
2023/07/30 05:57:07;;;;;;;13.50;2.97;;;;;;;-146.27;84.67;81861.94;5056984;28;20032;-70
2023/07/30 05:59:32;;;;;;;21.70;2.70;;;;;;;-146.27;84.75;81890.06;5055796;28;20149;-69
2023/07/30 06:02:02;;;;;;;17.50;2.83;;;;;;;-146.27;86.10;81869.97;5059300;28;20101;-70
2023/07/30 06:04:28;;;;;;;11.68;2.50;;;;;;;-146.27;85.85;81890.06;5054011;28;20037;-69
2023/07/30 06:06:53;;;;;;;17.88;3.42;;;;;;;-146.27;85.90;81845.88;5058210;28;20066;-70
2023/07/30 06:09:19;;;;;;;22.58;3.13;;;;;;;-146.27;85.72;81831.81;5059998;28;20037;-70
2023/07/30 06:11:44;;;;;;;22.23;3.60;;;;;;;-146.27;85.56;81811.72;5059478;28;20052;-70
2023/07/30 06:14:10;;;;;;;16.45;3.97;;;;;;;-146.27;85.64;81799.66;5073908;28;20283;-69
2023/07/30 06:16:35;;;;;;;20.70;3.60;;;;;;;-146.27;86.07;81865.94;5053646;28;20020;-69
2023/07/30 06:19:00;;;;;;;15.15;2.63;;;;;;;-146.27;86.30;81849.88;5061904;28;20553;-69
2023/07/30 06:21:26;;;;;;;16.45;2.75;;;;;;;-146.27;86.13;81831.81;5063472;28;20062;-69
2023/07/30 06:23:51;;;;;;;24.08;2.95;;;;;;;-146.27;86.37;81855.91;5064717;28;20107;-75
2023/07/30 06:26:16;;;;;;;17.67;2.92;;;;;;;-146.27;86.62;81855.91;5062500;28;20038;-75
2023/07/30 06:28:42;;;;;;;19.65;2.85;;;;;;;-146.27;86.43;81873.97;5069217;28;20017;-76
2023/07/30 06:31:07;;;;;;;16.80;2.60;;;;;;;-146.27;86.38;81865.94;5062905;28;20067;-76
2023/07/30 06:33:32;;;;;;;21.00;2.60;;;;;;;-146.27;85.53;81853.91;5054069;28;20028;-75
2023/07/30 06:35:58;;;;;;;18.92;2.55;;;;;;;-146.27;85.72;81898.09;5065454;28;20032;-75
2023/07/30 06:38:23;;;;;;;20.48;3.13;;;;;;;-146.27;85.93;81928.22;5052772;28;20048;-76
2023/07/30 06:40:49;;;;;;;18.80;2.78;;;;;;;-146.27;85.72;81926.22;5068486;28;20028;-76
2023/07/30 06:43:14;;;;;;;14.43;2.10;;;;;;;-146.27;85.62;81873.97;5063502;28;20025;-76
2023/07/30 06:45:39;;;;;;;15.95;2.42;;;;;;;-146.27;85.58;81849.88;5065570;28;20373;-76
2023/07/30 06:48:05;;;;;;;23.20;2.95;;;;;;;-146.27;85.78;81865.94;5059227;28;20044;-74
2023/07/30 06:50:30;;;;;;;14.73;2.65;;;;;;;-146.27;84.92;81878.00;5054752;28;20441;-75
2023/07/30 06:52:55;;;;;;;19.52;2.05;;;;;;;-146.27;84.15;81765.53;5064071;28;20040;-74
2023/07/30 06:55:21;;;;;;;17.80;2.47;;;;;;;-146.27;83.98;81829.78;5059866;28;20021;-74
2023/07/30 06:57:46;;;;;;;12.98;2.40;;;;;;;-146.27;83.51;81797.66;5058799;28;20037;-73
2023/07/30 07:00:12;;;;;;;15.70;2.30;;;;;;;-146.27;83.61;81882.00;5057659;28;20033;-73
2023/07/30 07:02:37;;;;;;;14.18;2.20;;;;;;;-146.27;83.81;81823.78;5061207;28;20029;-73
2023/07/30 07:05:03;;;;;;;11.68;2.42;;;;;;;-146.27;86.35;81873.97;5059899;28;20644;-74
2023/07/30 07:07:28;;;;;;;17.75;2.63;;;;;;;-146.27;89.93;81902.09;5058076;28;20048;-73
2023/07/30 07:09:54;;;;;;;13.95;2.83;;;;;;;-146.27;92.09;82018.59;5053916;28;20108;-73
2023/07/30 07:12:19;;;;;;;15.35;3.10;;;;;;;-146.27;93.57;82062.78;5057969;28;20361;-72
2023/07/30 07:14:45;;;;;;;14.77;2.97;;;;;;;-146.27;93.68;82151.16;5060134;28;20112;-72
2023/07/30 07:17:10;;;;;;;15.38;3.08;;;;;;;-146.27;94.58;82227.50;5057914;28;20021;-73
2023/07/30 07:19:36;;;;;;;14.93;2.92;;;;;;;-146.27;95.74;82243.56;5060670;28;20056;-73
2023/07/30 07:22:05;;;;;;;18.90;2.92;;;;;;;-146.27;96.44;82253.63;5059904;28;20087;-72
2023/07/30 07:24:31;;;;;;;14.70;1.88;;;;;;;-146.27;96.77;82271.69;5060295;28;20037;-71
2023/07/30 07:26:56;;;;;;;17.33;2.28;;;;;;;-146.27;97.51;82323.91;5054596;28;20032;-71
2023/07/30 07:29:22;;;;;;;15.13;2.00;;;;;;;-146.27;98.02;82295.81;5058845;28;20542;-73
2023/07/30 07:31:47;;;;;;;13.60;3.13;;;;;;;-146.27;97.92;82319.91;5056725;28;20503;-73
2023/07/30 07:34:13;;;;;;;7.68;2.25;;;;;;;-146.27;98.17;82275.72;5064144;28;20025;-71
2023/07/30 07:36:39;;;;;;;12.88;1.98;;;;;;;-146.27;97.93;82271.69;5063097;28;20112;-72
2023/07/30 07:39:04;;;;;;;13.88;2.30;;;;;;;-146.27;98.60;82251.59;5057019;28;20028;-73
2023/07/30 07:41:29;;;;;;;20.95;3.45;;;;;;;-146.27;96.82;82283.75;5058407;28;20045;-72
2023/07/30 07:43:55;;;;;;;14.38;2.45;;;;;;;-146.27;95.11;82297.81;5053392;28;20016;-73
2023/07/30 07:46:20;;;;;;;16.88;2.17;;;;;;;-146.27;93.91;82281.75;5056038;28;20052;-72
2023/07/30 07:48:45;;;;;;;12.30;2.47;;;;;;;-146.27;93.95;82185.31;5056131;28;20024;-71
2023/07/30 07:51:12;;;;;;;15.50;3.00;;;;;;;-146.27;94.85;82147.16;5060003;28;20404;-71
2023/07/30 07:53:38;;;;;;;12.18;2.25;;;;;;;-146.27;93.20;82102.97;5058350;28;20374;-71
2023/07/30 07:56:04;;;;;;;13.70;2.28;;;;;;;-146.27;91.60;82086.91;5059421;28;20043;-68
2023/07/30 07:58:30;;;;;;;11.30;1.95;;;;;;;-146.27;89.38;82090.91;5057466;28;20025;-67
2023/07/30 08:00:56;;;;;;;17.25;2.45;;;;;;;-146.27;88.08;82042.69;5058179;28;20024;-71
2023/07/30 08:03:22;;;;;;;11.38;2.20;;;;;;;-146.27;86.91;82078.84;5063981;28;20111;-75
2023/07/30 08:05:49;;;;;;;9.63;1.70;;;;;;;-146.27;86.78;82088.91;5050828;28;20020;-71
2023/07/30 08:08:15;;;;;;;11.02;1.55;;;;;;;-146.27;86.24;82050.75;5055977;28;20041;-70
2023/07/30 08:10:43;;;;;;;8.95;2.40;;;;;;;-146.27;84.91;82026.63;5053060;28;20386;-71
2023/07/30 08:13:11;;;;;;;9.48;2.30;;;;;;;-146.27;85.66;82016.59;5047999;28;20033;-71
2023/07/30 08:15:37;;;;;;;10.25;2.30;;;;;;;-146.27;84.28;82016.59;5058050;28;20480;-69
2023/07/30 08:18:02;;;;;;;9.00;1.38;;;;;;;-146.27;83.12;82076.84;5055203;28;20033;-70
2023/07/30 08:20:28;;;;;;;11.15;2.20;;;;;;;-146.27;84.81;82064.81;5049887;28;20025;-70
2023/07/30 08:22:53;;;;;;;22.30;3.17;;;;;;;-146.27;84.45;82010.56;5049456;28;20388;-68
2023/07/30 08:25:18;;;;;;;8.32;1.92;;;;;;;-146.27;83.30;82161.22;5051195;28;20086;-70
2023/07/30 08:27:44;;;;;;;13.40;1.63;;;;;;;-146.27;83.02;82026.63;5051346;28;20017;-70
2023/07/30 08:30:10;;;;;;;14.00;2.08;;;;;;;-146.27;84.07;81966.38;5059767;28;20381;-72
2023/07/30 08:32:35;;;;;;;10.05;2.15;;;;;;;-146.27;84.04;81978.44;5050219;28;20108;-71
2023/07/30 08:35:01;;;;;;;14.43;1.95;;;;;;;-146.27;83.14;82010.56;5051329;28;20119;-71
2023/07/30 08:37:26;;;;;;;10.57;1.90;;;;;;;-146.27;83.22;81952.31;5050934;28;20024;-70
2023/07/30 08:39:52;;;;;;;7.85;2.05;;;;;;;-146.27;82.93;81888.03;5052407;28;20071;-71
2023/07/30 08:42:17;;;;;;;10.52;2.40;;;;;;;-146.27;83.12;81843.84;5060261;28;20388;-71
2023/07/30 08:44:43;;;;;;;12.70;2.05;;;;;;;-146.27;83.06;81801.69;5070112;28;20081;-71
2023/07/30 08:47:09;;;;;;;11.77;1.83;;;;;;;-146.27;80.45;81765.53;5050974;28;20033;-71
2023/07/30 08:49:41;;;;;;;14.02;1.83;;;;;;;-146.27;80.58;81711.28;5050806;28;20036;-73
2023/07/30 08:52:10;;;;;;;10.50;1.83;;;;;;;-146.27;80.51;81689.19;5060762;28;20028;-72
2023/07/30 08:54:37;;;;;;;11.85;2.00;;;;;;;-146.27;78.61;81689.19;5069775;28;20475;-72
2023/07/30 08:57:09;;;;;;;9.20;1.70;;;;;;;-146.27;77.94;81705.28;5071087;28;20093;-71
2023/07/30 08:59:42;;;;;;;11.50;2.13;;;;;;;-146.27;77.15;81636.97;5069114;28;20061;-72
2023/07/30 09:02:16;;;;;;;;;;;;;;;-146.27;75.94;81612.88;5061318;28;20116;-72
2023/07/30 09:04:45;;;;;;;9.13;1.83;;;;;;;-146.27;76.59;81665.09;5064039;28;20421;-72
2023/07/30 09:07:11;;;;;;;10.85;1.80;;;;;;;-146.27;75.20;81685.19;5059699;28;20032;-73
2023/07/30 09:09:37;;;;;;;9.73;2.00;;;;;;;-146.27;74.96;81687.19;5051663;28;20051;-72
2023/07/30 09:12:03;;;;;;;12.25;1.63;;;;;;;-146.27;75.68;81731.38;5055701;28;20033;-71
2023/07/30 09:14:29;;;;;;;11.07;2.58;;;;;;;-146.27;74.76;81777.56;5064666;28;20048;-70
2023/07/30 09:17:00;;;;;;;9.15;2.22;;;;;;;-146.27;74.19;81693.22;5070086;28;20039;-71
2023/07/30 09:19:26;;;;;;;7.32;1.60;;;;;;;-146.27;73.68;81669.13;5067591;28;20472;-70
2023/07/30 09:21:52;;;;;;;8.43;2.03;;;;;;;-146.27;73.01;81673.13;5064974;28;20086;-70
2023/07/30 09:24:22;;;;;;;11.07;1.77;;;;;;;-146.27;75.62;81689.19;5068998;28;20028;-69
2023/07/30 09:26:47;;;;;;;6.50;1.88;;;;;;;-146.27;76.97;81723.34;5067694;28;20028;-69
2023/07/30 09:29:16;;;;;;;12.32;1.88;;;;;;;-146.27;77.62;81743.44;5079195;28;20024;-69
2023/07/30 09:31:51;;;;;;;13.40;1.77;;;;;;;-146.27;76.20;81703.25;5067464;28;20024;-72
2023/07/30 09:34:27;;;;;;;15.00;2.25;;;;;;;-146.27;76.19;81705.28;5070415;28;20028;-72
2023/07/30 09:36:58;;;;;;;9.95;1.50;;;;;;;-146.27;75.29;81673.13;5055809;28;20396;-72
2023/07/30 09:39:26;;;;;;;7.35;1.58;;;;;;;-146.27;73.53;81731.38;5067869;28;20032;-71
2023/07/30 09:42:00;;;;;;;4.53;1.05;;;;;;;-146.27;74.24;81679.16;5051036;28;20037;-70
2023/07/30 09:44:25;;;;;;;12.57;2.08;;;;;;;-146.27;74.18;81679.16;5056835;28;20454;-71
2023/07/30 09:46:51;;;;;;;10.90;1.63;;;;;;;-146.27;73.21;81667.09;5068328;28;20120;-71
2023/07/30 09:49:17;;;;;;;13.32;2.40;;;;;;;-146.27;73.59;81620.91;5068537;28;20035;-69
2023/07/30 09:51:43;;;;;;;10.77;1.77;;;;;;;-146.27;73.41;81653.06;5067622;28;20086;-71
2023/07/30 09:54:16;;;;;;;8.43;1.50;;;;;;;-146.27;72.76;81530.53;5063597;28;20473;-70
2023/07/30 09:56:44;;;;;;;9.15;1.80;;;;;;;-146.27;73.04;81500.41;5054237;28;20036;-70
2023/07/30 09:59:09;;;;;;;15.82;1.70;;;;;;;-146.27;71.66;81524.50;5057185;28;20062;-71
2023/07/30 10:01:44;;;;;;;6.25;1.55;;;;;;;-146.27;71.03;81432.13;5068828;28;20033;-73
2023/07/30 10:04:10;;;;;;;10.07;1.60;;;;;;;-146.27;69.52;81383.94;5060133;28;20033;-72
2023/07/30 10:07:08;;;;;;;8.10;1.67;;;;;;;-146.27;69.42;81311.63;5067914;28;20032;-73
2023/07/30 10:09:46;;;;;;;6.75;1.30;;;;;;;-146.27;65.94;81263.44;5062619;28;20038;-72
2023/07/30 10:12:22;;;;;;;9.48;1.85;;;;;;;-146.27;66.27;81207.19;5067443;28;20029;-72
2023/07/30 10:14:50;;;;;;;12.15;1.83;;;;;;;-146.27;63.27;81167.03;5060780;28;20024;-75
2023/07/30 10:17:20;;;;;;;5.13;1.40;;;;;;;-146.27;61.84;81114.81;5069799;28;20458;-74
2023/07/30 10:19:51;;;;;;;7.97;1.45;;;;;;;-146.27;63.73;81146.97;5057943;28;20036;-74
2023/07/30 10:22:19;;;;;;;10.15;1.50;;;;;;;-146.27;61.71;81293.56;5058322;28;20039;-74
2023/07/30 10:25:03;;;;;;;8.52;1.90;;;;;;;-146.27;62.82;81367.88;5052955;28;20032;-73
2023/07/30 10:27:46;;;;;;;10.50;1.70;;;;;;;-146.27;65.40;81385.94;5065897;28;20456;-74
2023/07/30 10:30:21;;;;;;;10.80;1.95;;;;;;;-146.27;66.32;81355.81;5059516;28;20025;-75
2023/07/30 10:33:02;;;;;;;10.43;1.77;;;;;;;-146.27;65.29;81317.66;5063004;28;20039;-72
2023/07/30 10:35:38;;;;;;;8.35;1.40;;;;;;;-146.27;66.01;81335.72;5057135;28;20541;-73
2023/07/30 10:38:24;;;;;;;13.60;1.75;;;;;;;-146.27;65.49;81381.91;5062623;28;20047;-74
2023/07/30 10:41:10;;;;;;;8.82;1.70;;;;;;;-146.27;66.08;81351.78;5056707;28;20492;-72
2023/07/30 10:43:39;;;;;;;8.38;1.40;;;;;;;-146.27;66.91;81412.03;5066131;28;20025;-73
2023/07/30 10:46:05;;;;;;;9.85;1.63;;;;;;;-146.27;67.75;81460.25;5058735;28;20495;-74
2023/07/30 10:48:36;;;;;;;10.82;1.77;;;;;;;-146.27;67.55;81371.88;5087657;28;20028;-74
2023/07/30 10:51:05;;;;;;;5.90;1.27;;;;;;;-146.27;67.72;81414.06;5075173;28;20040;-74
2023/07/30 10:53:30;;;;;;;7.75;1.23;;;;;;;-146.27;66.31;81383.94;5056443;28;20025;-74
2023/07/30 10:56:05;;;;;;;6.75;1.30;;;;;;;-146.27;65.01;81369.88;5057406;28;20105;-74
2023/07/30 10:58:32;;;;;;;8.15;1.58;;;;;;;-146.27;65.26;81279.50;5073120;28;20036;-75
2023/07/30 11:00:58;;;;;;;8.35;1.55;;;;;;;-146.27;65.69;81253.38;5052148;28;20025;-74
2023/07/30 11:03:27;;;;;;;9.48;1.83;;;;;;;-146.27;64.31;81259.41;5056099;28;20047;-73
2023/07/30 11:05:53;;;;;;;7.22;1.48;;;;;;;-146.27;65.99;81299.59;5064982;28;20040;-74
2023/07/30 11:08:41;;;;;;;8.95;1.33;;;;;;;-146.27;66.10;81215.22;5068263;28;20503;-75
2023/07/30 11:11:09;;;;;;;6.68;1.83;;;;;;;-146.27;66.35;81263.44;5069830;28;20495;-74